createdAt,value
2022-09-28T00:01:41.595Z,98658.97
2022-09-28T00:04:17.699Z,98675.41
2022-09-28T00:06:46.833Z,98652.16
2022-09-28T00:09:16.024Z,98672.84
2022-09-28T00:11:45.649Z,98678.00
2022-09-28T00:14:15.106Z,98688.22
2022-09-28T00:16:45.732Z,98637.53
2022-09-28T00:19:17.494Z,98634.97
2022-09-28T00:21:46.288Z,98659.00
2022-09-28T00:27:00.287Z,98646.19
2022-09-28T00:29:36.663Z,98640.97
2022-09-28T00:32:08.164Z,98627.31
2022-09-28T00:34:42.802Z,98627.31
2022-09-28T00:37:12.529Z,98632.44
2022-09-28T00:39:43.548Z,98600.75
2022-09-28T00:42:16.021Z,98642.91
2022-09-28T00:44:49.757Z,98601.50
2022-09-28T00:47:45.080Z,98590.31
2022-09-28T00:50:30.917Z,98623.03
2022-09-28T00:53:07.100Z,98611.09
2022-09-28T00:55:42.298Z,98596.41
2022-09-28T00:58:15.082Z,98626.44
2022-09-28T01:00:44.556Z,98578.56
2022-09-28T01:03:15.295Z,98612.94
2022-09-28T01:05:49.212Z,98595.94
2022-09-28T01:08:21.946Z,98589.84
2022-09-28T01:13:34.302Z,98624.84
2022-09-28T01:16:14.915Z,98591.59
2022-09-28T01:19:00.958Z,98598.34
2022-09-28T01:24:43.837Z,98586.34
2022-09-28T01:27:17.508Z,98543.41
2022-09-28T01:29:54.609Z,98583.81
2022-09-28T01:32:38.284Z,98569.19
2022-09-28T01:35:12.689Z,98563.22
2022-09-28T01:37:53.368Z,98548.47
2022-09-28T01:40:35.796Z,98557.16
2022-09-28T01:43:11.289Z,98558.03
2022-09-28T01:45:45.876Z,98538.38
2022-09-28T01:48:26.355Z,98559.78
2022-09-28T01:51:01.253Z,98529.09
2022-09-28T01:53:37.813Z,98539.31
2022-09-28T01:56:19.228Z,98554.81
2022-09-28T01:58:54.956Z,98539.25
2022-09-28T02:01:29.777Z,98552.97
2022-09-28T02:04:09.198Z,98547.06
2022-09-28T02:06:48.742Z,98554.66
2022-09-28T02:09:33.016Z,98522.97
2022-09-28T02:12:08.456Z,98539.28
2022-09-28T02:14:45.913Z,98517.03
2022-09-28T02:17:15.716Z,98510.38
2022-09-28T02:19:46.035Z,98511.03
2022-09-28T02:22:27.550Z,98507.53
2022-09-28T02:25:01.079Z,98492.22
2022-09-28T02:27:38.408Z,98437.53
2022-09-28T02:30:10.937Z,98505.19
2022-09-28T02:32:49.580Z,98506.81
2022-09-28T02:35:22.651Z,98462.41
2022-09-28T02:37:52.270Z,98484.75
2022-09-28T02:40:24.251Z,98438.63
2022-09-28T02:43:11.466Z,98488.31
2022-09-28T02:45:58.999Z,98489.72
2022-09-28T02:49:04.894Z,98469.13
2022-09-28T02:51:59.118Z,98452.03
2022-09-28T02:54:45.768Z,98450.44
2022-09-28T02:57:29.641Z,98460.59
2022-09-28T03:00:08.048Z,98439.25
2022-09-28T03:02:55.448Z,98460.63
2022-09-28T03:05:33.316Z,98428.91
2022-09-28T03:08:05.314Z,98458.28
2022-09-28T03:10:46.166Z,98447.63
2022-09-28T03:13:16.776Z,98436.66
2022-09-28T03:15:48.757Z,98458.00
2022-09-28T03:18:21.628Z,98467.41
2022-09-28T03:20:50.731Z,98435.53
2022-09-28T03:23:25.491Z,98435.75
2022-09-28T03:25:55.736Z,98448.53
2022-09-28T03:28:25.439Z,98412.78
2022-09-28T03:30:54.735Z,98445.06
2022-09-28T03:33:26.125Z,98433.09
2022-09-28T03:35:55.843Z,98462.22
2022-09-28T03:38:26.033Z,98427.97
2022-09-28T03:40:57.019Z,98446.03
2022-09-28T03:43:27.577Z,98433.69
2022-09-28T03:46:01.793Z,98416.59
2022-09-28T03:48:38.196Z,98431.13
2022-09-28T03:51:13.883Z,98420.84
2022-09-28T03:53:47.953Z,98401.25
2022-09-28T03:56:18.039Z,98402.78
2022-09-28T03:58:48.142Z,98429.44
2022-09-28T04:01:18.580Z,98410.56
2022-09-28T04:03:56.062Z,98389.00
2022-09-28T04:06:32.414Z,98409.34
2022-09-28T04:09:01.830Z,98398.19
2022-09-28T04:11:47.515Z,98384.59
2022-09-28T04:14:25.751Z,98399.09
2022-09-28T04:16:55.276Z,98364.00
2022-09-28T04:19:28.522Z,98394.78
2022-09-28T04:22:12.447Z,98395.75
2022-09-28T04:24:51.767Z,98394.16
2022-09-28T04:27:34.967Z,98388.00
2022-09-28T04:30:05.641Z,98375.13
2022-09-28T04:32:40.299Z,98393.00
2022-09-28T04:35:13.681Z,98374.97
2022-09-28T04:37:43.155Z,98373.13
2022-09-28T04:40:12.810Z,98362.84
2022-09-28T04:42:41.950Z,98365.63
2022-09-28T04:45:12.347Z,98384.50
2022-09-28T04:50:35.558Z,98380.28
2022-09-28T04:53:24.361Z,98323.78
2022-09-28T04:56:01.351Z,98371.41
2022-09-28T04:58:31.625Z,98389.47
2022-09-28T05:01:03.219Z,98380.84
2022-09-28T05:04:01.999Z,98378.88
2022-09-28T05:06:56.388Z,98378.78
2022-09-28T05:09:26.153Z,98370.19
2022-09-28T05:11:56.036Z,98372.78
2022-09-28T05:14:27.699Z,98363.22
2022-09-28T05:16:56.917Z,98369.91
2022-09-28T05:19:29.857Z,98348.72
2022-09-28T05:22:10.921Z,98339.00
2022-09-28T05:24:44.506Z,98347.59
2022-09-28T05:27:13.858Z,98343.16
2022-09-28T05:29:43.637Z,98335.31
2022-09-28T05:32:32.519Z,98306.59
2022-09-28T05:35:13.814Z,98326.88
2022-09-28T05:37:54.652Z,98328.91
2022-09-28T05:40:24.719Z,98338.97
2022-09-28T05:42:53.685Z,98313.16
2022-09-28T05:45:23.203Z,98338.97
2022-09-28T05:47:52.589Z,98335.34
2022-09-28T05:50:23.923Z,98325.63
2022-09-28T05:53:07.217Z,98337.94
2022-09-28T05:55:42.628Z,98340.56
2022-09-28T05:58:11.656Z,98336.16
2022-09-28T06:00:41.161Z,98336.06
2022-09-28T06:03:14.131Z,98333.50
2022-09-28T06:05:48.424Z,98339.31
2022-09-28T06:08:19.592Z,98333.19
2022-09-28T06:11:01.190Z,98336.34
2022-09-28T06:13:35.768Z,98324.56
2022-09-28T06:16:07.262Z,98314.34
2022-09-28T06:18:37.354Z,98325.06
2022-09-28T06:21:29.578Z,98307.72
2022-09-28T06:24:05.900Z,98313.94
2022-09-28T06:26:35.077Z,98315.41
2022-09-28T06:29:04.489Z,98324.66
2022-09-28T06:31:33.826Z,98323.06
2022-09-28T06:34:04.315Z,98329.75
2022-09-28T06:36:34.499Z,98317.56
2022-09-28T06:39:06.813Z,98332.34
2022-09-28T06:41:43.791Z,98323.41
2022-09-28T06:44:22.099Z,98319.34
2022-09-28T06:47:11.140Z,98335.72
2022-09-28T06:50:04.018Z,98336.88
2022-09-28T06:52:59.636Z,98327.81
2022-09-28T06:56:00.774Z,98321.13
2022-09-28T06:58:31.106Z,98296.09
2022-09-28T07:01:01.400Z,98328.91
2022-09-28T07:03:36.025Z,98317.16
2022-09-28T07:06:31.262Z,98323.34
2022-09-28T07:09:31.195Z,98324.94
2022-09-28T07:12:27.748Z,98319.53
2022-09-28T07:15:14.318Z,98305.47
2022-09-28T07:17:59.707Z,98306.22
2022-09-28T07:20:33.781Z,98309.78
2022-09-28T07:23:17.287Z,98304.06
2022-09-28T07:26:23.549Z,98303.63
2022-09-28T07:29:08.630Z,98318.75
2022-09-28T07:31:46.290Z,98319.78
2022-09-28T07:34:41.085Z,98316.06
2022-09-28T07:37:23.787Z,98315.00
2022-09-28T07:40:14.819Z,98313.84
2022-09-28T07:42:44.027Z,98310.69
2022-09-28T07:45:21.581Z,98315.50
2022-09-28T07:47:51.043Z,98313.63
2022-09-28T07:50:39.477Z,98309.53
2022-09-28T07:53:16.555Z,98303.06
2022-09-28T07:56:21.697Z,98311.47
2022-09-28T07:59:02.440Z,98310.59
2022-09-28T08:01:53.026Z,98310.66
2022-09-28T08:04:24.926Z,98313.97
2022-09-28T08:06:59.411Z,98302.69
2022-09-28T08:09:29.061Z,98302.50
2022-09-28T08:12:17.988Z,98293.28
2022-09-28T08:14:59.746Z,98304.59
2022-09-28T08:17:51.979Z,98297.06
2022-09-28T08:20:32.181Z,98305.13
2022-09-28T08:23:05.588Z,98297.78
2022-09-28T08:25:37.956Z,98296.78
2022-09-28T08:28:12.805Z,98298.69
2022-09-28T08:30:49.042Z,98293.59
2022-09-28T08:33:35.654Z,98297.16
2022-09-28T08:36:23.719Z,98298.59
2022-09-28T08:38:59.408Z,98300.19
2022-09-28T08:41:41.071Z,98295.03
2022-09-28T08:47:46.659Z,98286.16
2022-09-28T08:50:30.606Z,98289.06
2022-09-28T08:53:14.203Z,98286.38
2022-09-28T08:56:06.137Z,98259.75
2022-09-28T08:58:40.324Z,98273.50
2022-09-28T09:01:15.742Z,98266.06
2022-09-28T09:03:52.162Z,98269.97
2022-09-28T09:06:58.364Z,98282.47
2022-09-28T09:09:52.597Z,98273.84
2022-09-28T09:12:34.355Z,98278.91
2022-09-28T09:15:29.752Z,98289.50
2022-09-28T09:18:19.753Z,98287.00
2022-09-28T09:21:14.068Z,98296.38
2022-09-28T09:23:56.024Z,98288.00
2022-09-28T09:26:38.688Z,98288.75
2022-09-28T09:29:41.082Z,98297.47
2022-09-28T09:32:30.311Z,98292.34
2022-09-28T09:35:24.043Z,98290.69
2022-09-28T09:38:33.308Z,98303.50
2022-09-28T09:41:36.358Z,98302.22
2022-09-28T09:44:49.386Z,98301.59
2022-09-28T09:47:39.614Z,98291.22
2022-09-28T09:50:29.433Z,98298.03
2022-09-28T09:53:12.445Z,98292.22
2022-09-28T09:55:45.600Z,98300.13
2022-09-28T09:58:55.667Z,98299.88
2022-09-28T10:01:38.895Z,98298.50
2022-09-28T10:04:46.689Z,98296.22
2022-09-28T10:07:35.325Z,98292.09
2022-09-28T10:10:05.349Z,98284.75
2022-09-28T10:12:43.252Z,98290.41
2022-09-28T10:15:24.954Z,98291.22
2022-09-28T10:18:20.854Z,98304.72
2022-09-28T10:21:08.957Z,98294.78
2022-09-28T10:24:04.613Z,98296.84
2022-09-28T10:26:39.078Z,98304.34
2022-09-28T10:29:17.515Z,98304.41
2022-09-28T10:31:49.827Z,98298.66
2022-09-28T10:34:36.471Z,98297.53
2022-09-28T10:37:13.008Z,98289.41
2022-09-28T10:40:43.441Z,98297.84
2022-09-28T10:43:24.409Z,98294.44
2022-09-28T10:46:07.082Z,98280.84
2022-09-28T10:51:43.080Z,98303.31
2022-09-28T10:54:19.577Z,98297.56
2022-09-28T10:56:52.492Z,98290.50
2022-09-28T10:59:44.114Z,98274.69
2022-09-28T11:02:34.744Z,98290.88
2022-09-28T11:05:25.474Z,98286.31
2022-09-28T11:07:59.619Z,98292.69
2022-09-28T11:10:39.107Z,98295.09
2022-09-28T11:13:16.320Z,98299.88
2022-09-28T11:15:59.385Z,98297.31
2022-09-28T11:18:35.062Z,98299.25
2022-09-28T11:21:17.492Z,98296.72
2022-09-28T11:24:06.045Z,98303.66
2022-09-28T11:26:42.249Z,98306.34
2022-09-28T11:29:26.238Z,98304.53
2022-09-28T11:32:21.415Z,98304.31
2022-09-28T11:35:20.298Z,98310.78
2022-09-28T11:38:05.466Z,98308.31
2022-09-28T11:41:17.955Z,98309.22
2022-09-28T11:44:01.984Z,98310.59
2022-09-28T11:46:41.588Z,98301.72
2022-09-28T11:49:34.259Z,98305.13
2022-09-28T11:52:09.555Z,98306.66
2022-09-28T11:54:52.462Z,98307.59
2022-09-28T11:57:29.356Z,98313.31
2022-09-28T12:00:01.936Z,98323.56
2022-09-28T12:02:38.664Z,98318.38
2022-09-28T12:05:20.952Z,98322.56
2022-09-28T12:08:06.337Z,98307.78
2022-09-28T12:11:01.633Z,98314.31
2022-09-28T12:13:54.493Z,98319.38
2022-09-28T12:16:53.424Z,98319.53
2022-09-28T12:19:22.057Z,98319.13
2022-09-28T12:21:53.769Z,98315.88
2022-09-28T12:24:28.411Z,98314.72
2022-09-28T12:27:05.457Z,98321.84
2022-09-28T12:29:40.757Z,98323.00
2022-09-28T12:32:19.879Z,98317.25
2022-09-28T12:34:48.962Z,98323.16
2022-09-28T12:37:36.998Z,98324.06
2022-09-28T12:40:27.519Z,98318.34
2022-09-28T12:43:17.205Z,98322.66
2022-09-28T12:46:16.681Z,98326.28
2022-09-28T12:56:44.091Z,98330.75
2022-09-28T12:59:22.555Z,98324.72
2022-09-28T13:02:36.978Z,98319.97
2022-09-28T13:05:27.678Z,98329.22
2022-09-28T13:08:05.246Z,98292.88
2022-09-28T13:10:42.590Z,98329.91
2022-09-28T13:13:32.215Z,98334.88
2022-09-28T13:16:07.314Z,98331.63
2022-09-28T13:18:50.935Z,98330.81
2022-09-28T13:21:29.078Z,98310.41
2022-09-28T13:24:20.938Z,98323.88
2022-09-28T13:27:12.023Z,98300.47
2022-09-28T13:29:44.527Z,98329.91
2022-09-28T13:32:14.807Z,98328.81
2022-09-28T13:34:44.401Z,98316.97
2022-09-28T13:37:25.331Z,98331.06
2022-09-28T13:39:56.353Z,98329.69
2022-09-28T13:42:41.600Z,98323.66
2022-09-28T13:45:40.949Z,98322.63
2022-09-28T13:48:16.875Z,98320.28
2022-09-28T13:51:06.562Z,98322.09
2022-09-28T13:53:52.500Z,98320.53
2022-09-28T13:56:43.470Z,98324.94
2022-09-28T13:59:20.260Z,98324.28
2022-09-28T14:01:56.740Z,98343.97
2022-09-28T14:04:54.821Z,98310.59
2022-09-28T14:10:20.463Z,98333.28
2022-09-28T14:12:51.258Z,98331.81
2022-09-28T14:15:48.034Z,98344.56
2022-09-28T14:18:27.456Z,98344.72
2022-09-28T14:21:14.191Z,98348.03
2022-09-28T14:23:58.992Z,98341.94
2022-09-28T14:26:56.456Z,98344.69
2022-09-28T14:29:30.909Z,98354.25
2022-09-28T14:32:01.065Z,98352.50
2022-09-28T14:34:39.635Z,98364.31
2022-09-28T14:37:36.416Z,98338.78
2022-09-28T14:40:30.994Z,98355.56
2022-09-28T14:43:27.868Z,98358.88
2022-09-28T14:46:26.595Z,98371.91
2022-09-28T14:48:57.086Z,98368.50
2022-09-28T14:52:02.565Z,98371.75
2022-09-28T14:54:44.910Z,98386.31
2022-09-28T14:57:23.761Z,98384.56
2022-09-28T14:59:53.741Z,98359.19
2022-09-28T15:02:26.634Z,98394.81
2022-09-28T15:04:59.549Z,98394.72
2022-09-28T15:07:35.250Z,98401.56
2022-09-28T15:10:06.820Z,98403.44
2022-09-28T15:12:38.471Z,98404.38
2022-09-28T15:15:24.822Z,98397.66
2022-09-28T15:18:05.296Z,98415.56
2022-09-28T15:20:42.460Z,98412.19
2022-09-28T15:23:34.739Z,98412.19
2022-09-28T15:26:06.803Z,98409.88
2022-09-28T15:28:38.952Z,98408.34
2022-09-28T15:31:08.290Z,98412.69
2022-09-28T15:33:56.260Z,98404.47
2022-09-28T15:36:28.166Z,98425.63
2022-09-28T15:39:02.076Z,98428.81
2022-09-28T15:41:31.668Z,98429.06
2022-09-28T15:44:34.992Z,98436.72
2022-09-28T15:47:15.328Z,98443.72
2022-09-28T15:49:48.616Z,98434.31
2022-09-28T15:52:27.192Z,98444.53
2022-09-28T15:55:00.583Z,98451.50
2022-09-28T15:57:36.571Z,98437.06
2022-09-28T16:00:09.568Z,98431.28
2022-09-28T16:03:01.579Z,98438.94
2022-09-28T16:05:40.007Z,98434.06
2022-09-28T16:08:25.937Z,98441.63
2022-09-28T16:11:10.584Z,98438.25
2022-09-28T16:13:47.791Z,98432.41
2022-09-28T16:16:18.577Z,98442.91
2022-09-28T16:18:55.800Z,98435.22
2022-09-28T16:21:37.359Z,98422.03
2022-09-28T16:24:08.153Z,98440.66
2022-09-28T16:26:40.428Z,98444.84
2022-09-28T16:29:11.551Z,98428.69
2022-09-28T16:31:45.137Z,98419.44
2022-09-28T16:34:22.320Z,98434.44
2022-09-28T16:36:52.187Z,98442.09
2022-09-28T16:39:21.455Z,98444.00
2022-09-28T16:41:57.061Z,98453.34
2022-09-28T16:44:30.293Z,98453.34
2022-09-28T16:47:07.138Z,98448.97
2022-09-28T16:49:35.856Z,98442.59
2022-09-28T16:52:05.335Z,98443.81
2022-09-28T16:54:54.832Z,98455.13
2022-09-28T16:57:26.083Z,98451.75
2022-09-28T16:59:55.220Z,98458.69
2022-09-28T17:05:15.899Z,98462.97
2022-09-28T17:07:46.309Z,98473.38
2022-09-28T17:10:19.494Z,98469.03
2022-09-28T17:12:50.676Z,98466.56
2022-09-28T17:15:20.148Z,98460.50
2022-09-28T17:17:55.296Z,98476.00
2022-09-28T17:20:35.934Z,98471.00
2022-09-28T17:23:05.124Z,98474.34
2022-09-28T17:25:34.238Z,98476.84
2022-09-28T17:28:07.205Z,98478.41
2022-09-28T17:30:36.723Z,98477.50
2022-09-28T17:33:05.965Z,98485.22
2022-09-28T17:35:39.649Z,98480.00
2022-09-28T17:38:08.994Z,98485.00
2022-09-28T17:40:38.338Z,98484.06
2022-09-28T17:43:10.408Z,98475.81
2022-09-28T17:45:48.339Z,98489.91
2022-09-28T17:48:20.784Z,98489.09
2022-09-28T17:50:50.243Z,98496.81
2022-09-28T17:53:19.477Z,98487.44
2022-09-28T17:55:53.554Z,98491.72
2022-09-28T17:58:24.880Z,98494.31
2022-09-28T18:00:54.564Z,98478.03
2022-09-28T18:03:25.126Z,98481.38
2022-09-28T18:06:03.336Z,98474.53
2022-09-28T18:08:32.690Z,98487.38
2022-09-28T18:11:02.496Z,98486.47
2022-09-28T18:13:34.510Z,98477.09
2022-09-28T18:16:04.320Z,98484.06
2022-09-28T18:18:39.528Z,98478.06
2022-09-28T18:21:09.069Z,98487.53
2022-09-28T18:23:40.690Z,98478.91
2022-09-28T18:26:13.824Z,98479.69
2022-09-28T18:28:45.499Z,98471.94
2022-09-28T18:31:15.303Z,98472.38
2022-09-28T18:33:44.525Z,98474.53
2022-09-28T18:36:20.017Z,98469.50
2022-09-28T18:38:49.770Z,98478.25
2022-09-28T18:41:19.100Z,98473.22
2022-09-28T18:43:52.216Z,98473.16
2022-09-28T18:46:21.598Z,98468.31
2022-09-28T18:49:01.029Z,98478.50
2022-09-28T18:51:30.531Z,98472.53
2022-09-28T18:53:59.616Z,98467.47
2022-09-28T18:56:29.303Z,98466.59
2022-09-28T18:59:01.363Z,98474.50
2022-09-28T19:01:31.493Z,98455.91
2022-09-28T19:04:02.159Z,98465.44
2022-09-28T19:06:32.166Z,98481.66
2022-09-28T19:09:02.011Z,98484.19
2022-09-28T19:11:31.079Z,98482.56
2022-09-28T19:14:08.204Z,98479.97
2022-09-28T19:16:42.777Z,98487.81
2022-09-28T19:19:14.360Z,98488.78
2022-09-28T19:21:45.128Z,98469.16
2022-09-28T19:24:15.668Z,98480.91
2022-09-28T19:26:48.074Z,98480.06
2022-09-28T19:29:19.624Z,98479.34
2022-09-28T19:31:48.823Z,98486.63
2022-09-28T19:34:18.602Z,98449.72
2022-09-28T19:36:48.028Z,98491.38
2022-09-28T19:39:17.491Z,98492.31
2022-09-28T19:41:55.787Z,98472.13
2022-09-28T19:44:28.487Z,98489.09
2022-09-28T19:46:59.661Z,98490.69
2022-09-28T19:49:32.725Z,98505.31
2022-09-28T19:52:12.814Z,98512.25
2022-09-28T19:54:43.359Z,98511.31
2022-09-28T19:57:12.620Z,98502.88
2022-09-28T19:59:43.745Z,98515.78
2022-09-28T20:02:13.677Z,98512.38
2022-09-28T20:04:42.814Z,98523.63
2022-09-28T20:07:11.967Z,98515.84
2022-09-28T20:09:41.640Z,98517.59
2022-09-28T20:12:11.006Z,98510.19
2022-09-28T20:14:40.542Z,98531.38
2022-09-28T20:17:13.244Z,98528.72
2022-09-28T20:19:42.447Z,98529.59
2022-09-28T20:22:11.890Z,98529.72
2022-09-28T20:24:41.001Z,98529.97
2022-09-28T20:27:10.045Z,98531.63
2022-09-28T20:29:39.723Z,98541.91
2022-09-28T20:32:08.812Z,98527.47
2022-09-28T20:34:40.058Z,98536.78
2022-09-28T20:37:09.146Z,98551.19
2022-09-28T20:39:42.747Z,98554.78
2022-09-28T20:42:15.669Z,98554.78
2022-09-28T20:44:50.099Z,98530.16
2022-09-28T20:47:19.466Z,98559.72
2022-09-28T20:49:56.695Z,98570.84
2022-09-28T20:52:30.887Z,98580.38
2022-09-28T20:55:00.065Z,98572.66
2022-09-28T20:57:29.662Z,98589.00
2022-09-28T20:59:59.354Z,98576.09
2022-09-28T21:02:28.620Z,98563.34
2022-09-28T21:04:59.810Z,98572.94
2022-09-28T21:07:28.879Z,98584.03
2022-09-28T21:09:59.594Z,98572.84
2022-09-28T21:12:29.142Z,98579.78
2022-09-28T21:15:01.161Z,98572.16
2022-09-28T21:20:15.640Z,98583.19
2022-09-28T21:22:44.766Z,98572.75
2022-09-28T21:25:14.007Z,98576.91
2022-09-28T21:27:43.069Z,98571.25
2022-09-28T21:30:13.204Z,98594.16
2022-09-28T21:32:50.046Z,98584.66
2022-09-28T21:35:21.178Z,98582.13
2022-09-28T21:37:50.291Z,98588.22
2022-09-28T21:40:20.061Z,98589.19
2022-09-28T21:42:52.057Z,98590.97
2022-09-28T21:45:21.484Z,98583.34
2022-09-28T21:50:32.936Z,98589.13
2022-09-28T21:53:02.800Z,98569.81
2022-09-28T21:55:31.909Z,98587.56
2022-09-28T21:58:01.126Z,98595.97
2022-09-28T22:00:30.160Z,98595.97
2022-09-28T22:03:04.711Z,98601.13
2022-09-28T22:05:36.029Z,98600.25
2022-09-28T22:08:05.169Z,98608.00
2022-09-28T22:10:34.224Z,98605.56
2022-09-28T22:13:04.034Z,98600.41
2022-09-28T22:15:33.172Z,98605.59
2022-09-28T22:18:02.507Z,98607.44
2022-09-28T22:20:31.595Z,98604.13
2022-09-28T22:23:12.720Z,98609.34
2022-09-28T22:25:47.244Z,98598.97
2022-09-28T22:28:16.449Z,98595.66
2022-09-28T22:30:46.272Z,98609.19
2022-09-28T22:33:15.736Z,98614.28
2022-09-28T22:35:45.977Z,98610.94
2022-09-28T22:38:17.597Z,98611.03
2022-09-28T22:40:54.924Z,98597.44
2022-09-28T22:43:26.298Z,98616.13
2022-09-28T22:46:09.253Z,98604.13
2022-09-28T22:48:45.328Z,98607.44
2022-09-28T22:51:14.750Z,98614.25
2022-09-28T22:53:45.701Z,98617.78
2022-09-28T22:56:18.666Z,98600.78
2022-09-28T22:58:48.612Z,98612.78
2022-09-28T23:01:19.442Z,98615.31
2022-09-28T23:03:49.026Z,98613.56
2022-09-28T23:06:24.029Z,98604.47
2022-09-28T23:08:55.418Z,98602.06
2022-09-28T23:11:24.857Z,98622.53
2022-09-28T23:13:54.992Z,98626.75
2022-09-28T23:16:26.225Z,98620.72
2022-09-28T23:18:56.375Z,98625.84
2022-09-28T23:21:27.326Z,98627.53
2022-09-28T23:24:00.772Z,98633.44
2022-09-28T23:26:31.940Z,98628.38
2022-09-28T23:29:01.624Z,98620.72
2022-09-28T23:31:32.473Z,98631.00
2022-09-28T23:36:37.734Z,98626.09
2022-09-28T23:39:08.734Z,98632.88
2022-09-28T23:41:42.862Z,98623.59
2022-09-28T23:44:11.809Z,98631.13
2022-09-28T23:46:41.035Z,98636.19
2022-09-28T23:49:10.189Z,98637.94
2022-09-28T23:51:39.914Z,98636.16
2022-09-28T23:54:11.181Z,98637.00
2022-09-28T23:56:40.258Z,98641.09
2022-09-28T23:59:09.157Z,98638.44
